createdAt,value
2023-03-02T00:01:16.184Z,22.73
2023-03-02T00:03:47.465Z,25.13
2023-03-02T00:06:24.219Z,24.77
2023-03-02T00:08:53.761Z,21.90
2023-03-02T00:11:23.939Z,25.80
2023-03-02T00:13:59.424Z,23.20
2023-03-02T00:16:28.674Z,21.37
2023-03-02T00:19:02.589Z,24.87
2023-03-02T00:21:37.514Z,23.90
2023-03-02T00:24:08.913Z,24.60
2023-03-02T00:26:49.672Z,22.57
2023-03-02T00:29:22.490Z,25.57
2023-03-02T00:31:56.785Z,23.63
2023-03-02T00:34:29.230Z,23.53
2023-03-02T00:37:00.229Z,24.03
2023-03-02T00:39:30.621Z,27.73
2023-03-02T00:42:00.310Z,22.30
2023-03-02T00:44:29.394Z,24.60
2023-03-02T00:47:07.440Z,22.53
2023-03-02T00:49:41.707Z,22.07
2023-03-02T00:52:14.019Z,21.53
2023-03-02T00:54:44.940Z,22.67
2023-03-02T00:57:17.366Z,19.47
2023-03-02T00:59:50.688Z,19.50
2023-03-02T01:02:23.070Z,24.00
2023-03-02T01:04:53.454Z,22.40
2023-03-02T01:07:28.747Z,23.40
2023-03-02T01:10:00.841Z,23.27
2023-03-02T01:12:32.814Z,23.67
2023-03-02T01:15:02.127Z,22.53
2023-03-02T01:17:35.098Z,25.67
2023-03-02T01:20:04.973Z,22.47
2023-03-02T01:22:38.356Z,23.40
2023-03-02T01:25:08.486Z,21.83
2023-03-02T01:27:37.864Z,22.50
2023-03-02T01:30:08.499Z,23.10
2023-03-02T01:32:37.960Z,20.27
2023-03-02T01:35:11.781Z,19.63
2023-03-02T01:37:43.863Z,21.33
2023-03-02T01:40:16.664Z,20.53
2023-03-02T01:42:53.643Z,16.73
2023-03-02T01:45:48.347Z,22.70
2023-03-02T01:48:21.368Z,19.70
2023-03-02T01:50:51.877Z,19.37
2023-03-02T01:53:26.608Z,24.23
2023-03-02T01:55:58.955Z,20.77
2023-03-02T01:58:31.005Z,21.90
2023-03-02T02:01:02.977Z,20.93
2023-03-02T02:03:38.715Z,23.87
2023-03-02T02:06:18.167Z,21.83
2023-03-02T02:08:51.448Z,17.63
2023-03-02T02:11:22.340Z,18.87
2023-03-02T02:13:54.609Z,21.17
2023-03-02T02:16:23.580Z,23.23
2023-03-02T02:18:53.028Z,20.33
2023-03-02T02:21:23.321Z,17.93
2023-03-02T02:24:04.410Z,19.97
2023-03-02T02:26:41.028Z,22.63
2023-03-02T02:29:22.786Z,21.07
2023-03-02T02:31:58.272Z,20.40
2023-03-02T02:34:33.466Z,22.60
2023-03-02T02:37:07.995Z,19.63
2023-03-02T02:39:44.450Z,23.23
2023-03-02T02:42:18.663Z,20.07
2023-03-02T02:44:58.952Z,21.00
2023-03-02T02:47:28.360Z,23.07
2023-03-02T02:49:58.661Z,21.77
2023-03-02T02:52:37.278Z,22.37
2023-03-02T02:55:15.563Z,25.87
2023-03-02T02:57:46.354Z,18.57
2023-03-02T03:00:24.809Z,22.50
2023-03-02T03:03:02.289Z,17.87
2023-03-02T03:05:31.736Z,23.47
2023-03-02T03:08:12.146Z,21.60
2023-03-02T03:10:44.345Z,18.60
2023-03-02T03:13:14.671Z,18.87
2023-03-02T03:15:50.938Z,17.73
2023-03-02T03:18:27.281Z,15.77
2023-03-02T03:20:56.099Z,19.53
2023-03-02T03:23:25.141Z,20.40
2023-03-02T03:25:54.275Z,16.60
2023-03-02T03:28:24.776Z,14.53
2023-03-02T03:30:54.842Z,16.77
2023-03-02T03:33:23.744Z,19.03
2023-03-02T03:35:52.990Z,20.57
2023-03-02T03:38:23.768Z,20.20
2023-03-02T03:40:56.639Z,18.93
2023-03-02T03:43:32.785Z,19.73
2023-03-02T03:46:05.017Z,17.47
2023-03-02T03:48:34.536Z,21.27
2023-03-02T03:51:04.516Z,19.63
2023-03-02T03:53:35.585Z,21.17
2023-03-02T03:56:08.113Z,21.10
2023-03-02T03:58:46.585Z,23.33
2023-03-02T04:01:24.775Z,19.50
2023-03-02T04:03:53.887Z,19.60
2023-03-02T04:06:33.322Z,18.93
2023-03-02T04:09:07.888Z,19.97
2023-03-02T04:11:48.701Z,20.67
2023-03-02T04:14:31.525Z,19.20
2023-03-02T04:17:11.718Z,19.20
2023-03-02T04:19:41.086Z,19.67
2023-03-02T04:22:19.624Z,18.70
2023-03-02T04:24:50.054Z,18.43
2023-03-02T04:27:24.578Z,21.00
2023-03-02T04:29:56.874Z,16.20
2023-03-02T04:32:29.504Z,17.03
2023-03-02T04:35:00.345Z,17.60
2023-03-02T04:37:29.340Z,20.50
2023-03-02T04:40:02.116Z,17.33
2023-03-02T04:42:31.506Z,22.87
2023-03-02T04:45:17.519Z,20.37
2023-03-02T04:47:57.227Z,21.57
2023-03-02T04:50:33.738Z,20.13
2023-03-02T04:53:06.028Z,21.83
2023-03-02T04:55:38.175Z,21.50
2023-03-02T04:58:09.751Z,19.50
2023-03-02T05:00:46.379Z,21.90
2023-03-02T05:03:18.373Z,20.07
2023-03-02T05:05:53.472Z,19.40
2023-03-02T05:08:29.017Z,20.63
2023-03-02T05:11:06.620Z,21.73
2023-03-02T05:13:38.417Z,21.30
2023-03-02T05:16:19.751Z,19.20
2023-03-02T05:19:04.490Z,20.37
2023-03-02T05:21:39.275Z,22.13
2023-03-02T05:24:16.979Z,21.87
2023-03-02T05:26:57.940Z,21.47
2023-03-02T05:29:27.689Z,22.23
2023-03-02T05:32:10.776Z,19.90
2023-03-02T05:34:40.335Z,21.90
2023-03-02T05:37:09.481Z,19.00
2023-03-02T05:39:48.476Z,22.77
2023-03-02T05:42:23.198Z,18.73
2023-03-02T05:44:52.858Z,19.27
2023-03-02T05:47:23.253Z,17.87
2023-03-02T05:49:52.644Z,17.67
2023-03-02T05:52:26.540Z,17.47
2023-03-02T05:54:55.987Z,18.10
2023-03-02T05:57:29.654Z,20.20
2023-03-02T06:00:07.067Z,20.10
2023-03-02T06:02:42.432Z,19.83
2023-03-02T06:05:18.638Z,17.93
2023-03-02T06:07:54.786Z,17.67
2023-03-02T06:10:25.857Z,17.20
2023-03-02T06:13:38.233Z,16.23
2023-03-02T06:16:25.356Z,17.83
2023-03-02T06:18:55.961Z,16.37
2023-03-02T06:21:34.186Z,19.60
2023-03-02T06:24:05.493Z,19.00
2023-03-02T06:26:37.401Z,18.93
2023-03-02T06:29:09.350Z,19.90
2023-03-02T06:31:40.322Z,20.40
2023-03-02T06:34:17.202Z,17.97
2023-03-02T06:36:50.488Z,16.03
2023-03-02T06:39:22.911Z,18.07
2023-03-02T06:41:52.163Z,17.83
2023-03-02T06:44:23.908Z,17.73
2023-03-02T06:46:52.942Z,20.47
2023-03-02T06:49:26.195Z,19.63
2023-03-02T06:51:56.286Z,18.63
2023-03-02T06:54:29.086Z,15.83
2023-03-02T06:57:04.153Z,19.10
2023-03-02T06:59:33.270Z,19.83
2023-03-02T07:02:02.121Z,19.27
2023-03-02T07:04:35.286Z,19.43
2023-03-02T07:07:15.819Z,18.90
2023-03-02T07:09:47.584Z,18.37
2023-03-02T07:12:16.415Z,18.27
2023-03-02T07:14:46.903Z,20.77
2023-03-02T07:17:15.624Z,19.03
2023-03-02T07:19:51.329Z,17.73
2023-03-02T07:22:25.553Z,16.97
2023-03-02T07:24:54.694Z,19.23
2023-03-02T07:27:25.832Z,18.13
2023-03-02T07:29:56.689Z,19.20
2023-03-02T07:32:25.976Z,17.83
2023-03-02T07:34:56.508Z,18.87
2023-03-02T07:37:26.087Z,16.10
2023-03-02T07:39:54.869Z,19.37
2023-03-02T07:42:26.323Z,20.90
2023-03-02T07:44:57.879Z,18.33
2023-03-02T07:47:34.768Z,19.47
2023-03-02T07:50:10.402Z,20.07
2023-03-02T07:52:43.424Z,20.53
2023-03-02T07:55:16.026Z,19.77
2023-03-02T07:57:50.404Z,20.63
2023-03-02T08:00:23.835Z,19.90
2023-03-02T08:02:54.156Z,18.97
2023-03-02T08:05:27.581Z,17.83
2023-03-02T08:08:00.422Z,18.47
2023-03-02T08:10:29.399Z,21.10
2023-03-02T08:12:58.292Z,21.43
2023-03-02T08:15:38.330Z,22.57
2023-03-02T08:18:13.555Z,18.87
2023-03-02T08:20:47.680Z,19.17
2023-03-02T08:23:17.611Z,17.60
2023-03-02T08:25:47.522Z,17.40
2023-03-02T08:28:20.615Z,19.73
2023-03-02T08:30:59.634Z,20.00
2023-03-02T08:33:34.131Z,17.17
2023-03-02T08:36:06.285Z,18.00
2023-03-02T08:38:37.160Z,19.97
2023-03-02T08:41:10.303Z,17.33
2023-03-02T08:43:46.843Z,21.03
2023-03-02T08:46:21.090Z,18.33
2023-03-02T08:48:53.440Z,17.50
2023-03-02T08:51:27.106Z,16.90
2023-03-02T08:53:57.110Z,17.10
2023-03-02T08:56:31.446Z,16.80
2023-03-02T08:59:22.355Z,17.67
2023-03-02T09:01:51.540Z,17.90
2023-03-02T09:04:23.359Z,16.27
2023-03-02T09:06:58.490Z,17.90
2023-03-02T09:09:29.758Z,15.60
2023-03-02T09:12:01.491Z,17.73
2023-03-02T09:14:34.828Z,18.20
2023-03-02T09:17:05.790Z,19.40
2023-03-02T09:19:43.228Z,16.10
2023-03-02T09:22:14.913Z,15.70
2023-03-02T09:24:49.716Z,19.63
2023-03-02T09:27:18.535Z,16.50
2023-03-02T09:29:50.088Z,19.27
2023-03-02T09:32:19.061Z,16.00
2023-03-02T09:34:50.637Z,16.60
2023-03-02T09:37:22.065Z,14.57
2023-03-02T09:39:51.073Z,14.83
2023-03-02T09:42:44.130Z,15.23
2023-03-02T09:45:55.900Z,14.27
2023-03-02T09:48:36.467Z,17.87
2023-03-02T09:51:22.273Z,15.40
2023-03-02T09:54:06.128Z,15.60
2023-03-02T09:56:37.929Z,19.80
2023-03-02T09:59:15.648Z,17.77
2023-03-02T10:01:54.598Z,14.77
2023-03-02T10:04:27.910Z,14.50
2023-03-02T10:07:03.814Z,15.97
2023-03-02T10:09:39.296Z,15.67
2023-03-02T10:12:37.892Z,15.80
2023-03-02T10:15:12.831Z,16.10
2023-03-02T10:17:54.332Z,18.37
2023-03-02T10:20:38.347Z,15.50
2023-03-02T10:23:22.999Z,14.80
2023-03-02T10:26:07.057Z,16.03
2023-03-02T10:28:47.344Z,16.93
2023-03-02T10:31:30.066Z,14.73
2023-03-02T10:34:06.049Z,14.60
2023-03-02T10:36:40.184Z,15.40
2023-03-02T10:39:18.614Z,17.40
2023-03-02T10:41:57.331Z,16.90
2023-03-02T10:44:32.821Z,15.57
2023-03-02T10:47:01.792Z,14.47
2023-03-02T10:49:35.447Z,15.70
2023-03-02T10:52:06.166Z,14.83
2023-03-02T10:54:38.590Z,15.63
2023-03-02T10:57:33.541Z,15.27
2023-03-02T11:00:06.067Z,15.50
2023-03-02T11:02:40.958Z,15.27
2023-03-02T11:05:28.489Z,14.87
2023-03-02T11:07:59.678Z,15.43
2023-03-02T11:10:37.040Z,14.67
2023-03-02T11:13:24.206Z,14.80
2023-03-02T11:15:55.515Z,15.97
2023-03-02T11:18:35.834Z,14.83
2023-03-02T11:21:11.874Z,14.70
2023-03-02T11:24:10.511Z,17.47
2023-03-02T11:26:50.352Z,15.93
2023-03-02T11:29:36.466Z,14.63
2023-03-02T11:32:14.510Z,13.97
2023-03-02T11:34:52.735Z,15.73
2023-03-02T11:37:41.806Z,14.13
2023-03-02T11:40:29.044Z,14.33
2023-03-02T11:43:07.129Z,15.60
2023-03-02T11:45:46.006Z,16.30
2023-03-02T11:48:26.298Z,12.90
2023-03-02T11:51:00.261Z,14.70
2023-03-02T11:53:34.978Z,15.43
2023-03-02T11:56:03.762Z,14.20
2023-03-02T11:58:35.968Z,14.80
2023-03-02T12:01:13.969Z,15.47
2023-03-02T12:03:45.017Z,16.20
2023-03-02T12:06:39.474Z,13.97
2023-03-02T12:09:12.979Z,15.00
2023-03-02T12:11:46.300Z,16.47
2023-03-02T12:14:30.504Z,12.70
2023-03-02T12:17:22.347Z,13.63
2023-03-02T12:19:53.293Z,15.03
2023-03-02T12:22:30.940Z,13.50
2023-03-02T12:25:06.413Z,14.77
2023-03-02T12:27:38.934Z,13.80
2023-03-02T12:30:24.701Z,14.13
2023-03-02T12:33:21.249Z,16.20
2023-03-02T12:36:07.539Z,15.80
2023-03-02T12:38:39.676Z,14.13
2023-03-02T12:41:22.384Z,14.13
2023-03-02T12:44:04.236Z,17.07
2023-03-02T12:46:34.308Z,13.90
2023-03-02T12:49:31.624Z,14.70
2023-03-02T12:52:01.886Z,14.13
2023-03-02T12:54:32.595Z,14.63
2023-03-02T12:57:08.847Z,14.90
2023-03-02T12:59:38.206Z,13.73
2023-03-02T13:02:15.785Z,14.33
2023-03-02T13:04:46.016Z,15.37
2023-03-02T13:07:19.622Z,13.60
2023-03-02T13:09:56.533Z,15.33
2023-03-02T13:12:28.390Z,13.10
2023-03-02T13:14:58.560Z,15.80
2023-03-02T13:17:32.127Z,13.93
2023-03-02T13:20:04.744Z,13.60
2023-03-02T13:22:33.586Z,16.27
2023-03-02T13:25:05.575Z,16.13
2023-03-02T13:27:34.761Z,16.73
2023-03-02T13:30:12.106Z,14.77
2023-03-02T13:32:43.500Z,16.77
2023-03-02T13:35:24.989Z,14.20
2023-03-02T13:38:01.710Z,17.40
2023-03-02T13:40:42.973Z,17.33
2023-03-02T13:43:32.064Z,15.83
2023-03-02T13:46:02.216Z,14.07
2023-03-02T13:48:31.498Z,14.27
2023-03-02T13:51:03.573Z,14.57
2023-03-02T13:53:38.125Z,14.10
2023-03-02T13:56:07.210Z,15.07
2023-03-02T13:58:39.421Z,14.83
2023-03-02T14:01:08.852Z,14.93
2023-03-02T14:03:37.744Z,14.53
2023-03-02T14:06:08.611Z,13.93
2023-03-02T14:08:39.981Z,14.57
2023-03-02T14:11:08.722Z,13.43
2023-03-02T14:13:40.893Z,16.00
2023-03-02T14:16:12.948Z,17.00
2023-03-02T14:18:46.152Z,15.60
2023-03-02T14:21:18.996Z,14.40
2023-03-02T14:23:48.478Z,14.47
2023-03-02T14:26:30.231Z,15.17
2023-03-02T14:29:05.534Z,15.83
2023-03-02T14:31:35.388Z,15.10
2023-03-02T14:34:04.489Z,14.60
2023-03-02T14:36:35.796Z,15.87
2023-03-02T14:39:06.586Z,15.10
2023-03-02T14:41:52.631Z,13.73
2023-03-02T14:44:28.280Z,13.20
2023-03-02T14:46:57.615Z,15.83
2023-03-02T14:49:26.452Z,15.17
2023-03-02T14:52:03.732Z,16.07
2023-03-02T14:54:41.501Z,14.20
2023-03-02T14:57:18.407Z,14.33
2023-03-02T14:59:49.911Z,14.17
2023-03-02T15:02:26.441Z,14.00
2023-03-02T15:04:58.469Z,13.70
2023-03-02T15:07:29.494Z,14.30
2023-03-02T15:09:58.842Z,13.37
2023-03-02T15:12:29.821Z,13.33
2023-03-02T15:15:01.163Z,13.37
2023-03-02T15:17:29.793Z,12.83
2023-03-02T15:19:58.511Z,13.47
2023-03-02T15:22:28.888Z,12.97
2023-03-02T15:24:57.762Z,13.17
2023-03-02T15:27:26.756Z,14.60
2023-03-02T15:29:58.271Z,15.03
2023-03-02T15:32:28.689Z,14.27
2023-03-02T15:34:57.489Z,14.67
2023-03-02T15:37:26.350Z,13.67
2023-03-02T15:39:57.106Z,14.13
2023-03-02T15:42:25.828Z,12.53
2023-03-02T15:44:54.602Z,15.33
2023-03-02T15:47:29.115Z,12.63
2023-03-02T15:49:57.764Z,14.33
2023-03-02T15:52:26.569Z,12.53
2023-03-02T15:54:56.772Z,13.80
2023-03-02T15:57:26.276Z,13.30
2023-03-02T15:59:55.087Z,14.63
2023-03-02T16:02:26.208Z,14.50
2023-03-02T16:04:54.869Z,17.53
2023-03-02T16:07:23.673Z,14.30
2023-03-02T16:09:55.205Z,16.77
2023-03-02T16:12:26.788Z,15.30
2023-03-02T16:14:58.548Z,17.63
2023-03-02T16:17:27.524Z,17.17
2023-03-02T16:19:58.935Z,17.73
2023-03-02T16:22:27.759Z,15.37
2023-03-02T16:24:56.516Z,19.57
2023-03-02T16:27:26.642Z,19.47
2023-03-02T16:29:59.445Z,16.83
2023-03-02T16:32:30.125Z,14.77
2023-03-02T16:35:00.417Z,19.43
2023-03-02T16:37:29.168Z,15.83
2023-03-02T16:39:58.124Z,17.73
2023-03-02T16:42:31.565Z,15.77
2023-03-02T16:45:00.569Z,16.73
2023-03-02T16:47:29.328Z,16.40
2023-03-02T16:50:01.675Z,16.73
2023-03-02T16:52:30.489Z,14.37
2023-03-02T16:57:46.804Z,15.27
2023-03-02T17:00:21.781Z,14.50
2023-03-02T17:02:51.803Z,17.33
2023-03-02T17:05:23.835Z,14.27
2023-03-02T17:07:52.823Z,16.20
2023-03-02T17:10:30.978Z,15.40
2023-03-02T17:13:02.377Z,15.40
2023-03-02T17:15:31.334Z,18.60
2023-03-02T17:18:03.105Z,14.00
2023-03-02T17:20:31.910Z,15.90
2023-03-02T17:23:00.631Z,17.07
2023-03-02T17:25:32.120Z,15.07
2023-03-02T17:28:06.702Z,16.77
2023-03-02T17:30:40.032Z,14.63
2023-03-02T17:33:12.333Z,15.63
2023-03-02T17:36:10.259Z,14.67
2023-03-02T17:38:53.806Z,14.40
2023-03-02T17:41:31.504Z,15.30
2023-03-02T17:44:05.851Z,17.57
2023-03-02T17:46:34.850Z,13.87
2023-03-02T17:49:06.358Z,15.67
2023-03-02T17:51:35.193Z,14.33
2023-03-02T17:54:03.884Z,14.90
2023-03-02T17:56:32.721Z,14.97
2023-03-02T17:59:05.483Z,14.57
2023-03-02T18:01:36.253Z,15.23
2023-03-02T18:04:08.255Z,15.27
2023-03-02T18:06:39.263Z,16.13
2023-03-02T18:09:09.575Z,15.80
2023-03-02T18:11:38.679Z,13.93
2023-03-02T18:14:08.956Z,18.00
2023-03-02T18:16:37.694Z,15.17
2023-03-02T18:19:06.432Z,15.27
2023-03-02T18:21:36.424Z,16.57
2023-03-02T18:24:05.642Z,14.97
2023-03-02T18:26:49.769Z,16.67
2023-03-02T18:29:23.631Z,17.73
2023-03-02T18:31:53.730Z,17.20
2023-03-02T18:34:25.033Z,15.77
2023-03-02T18:37:01.761Z,16.80
2023-03-02T18:42:24.430Z,14.50
2023-03-02T18:44:57.214Z,15.90
2023-03-02T18:47:26.458Z,15.40
2023-03-02T18:50:03.512Z,15.33
2023-03-02T18:52:32.690Z,15.17
2023-03-02T18:55:04.864Z,16.80
2023-03-02T18:57:44.214Z,13.13
2023-03-02T19:00:32.175Z,14.17
2023-03-02T19:03:09.415Z,14.53
2023-03-02T19:05:50.921Z,12.60
2023-03-02T19:08:37.131Z,12.83
2023-03-02T19:11:27.166Z,16.67
2023-03-02T19:14:03.907Z,15.47
2023-03-02T19:16:36.968Z,14.50
2023-03-02T19:19:10.395Z,16.63
2023-03-02T19:21:44.459Z,15.83
2023-03-02T19:24:37.429Z,14.60
2023-03-02T19:27:22.050Z,16.60
2023-03-02T19:29:51.201Z,14.80
2023-03-02T19:32:23.653Z,12.63
2023-03-02T19:34:54.628Z,16.87
2023-03-02T19:37:27.043Z,15.60
2023-03-02T19:39:56.347Z,13.80
2023-03-02T19:42:26.954Z,17.53
2023-03-02T19:45:03.379Z,17.30
2023-03-02T19:47:40.576Z,15.67
2023-03-02T19:50:11.089Z,14.60
2023-03-02T19:53:03.739Z,15.07
2023-03-02T19:56:01.819Z,14.27
2023-03-02T19:58:35.336Z,14.60
2023-03-02T20:01:13.440Z,15.53
2023-03-02T20:03:55.822Z,14.90
2023-03-02T20:06:28.089Z,14.97
2023-03-02T20:08:56.874Z,13.63
2023-03-02T20:11:27.423Z,13.53
2023-03-02T20:13:56.533Z,17.33
2023-03-02T20:16:25.414Z,16.27
2023-03-02T20:19:02.299Z,15.53
2023-03-02T20:21:34.726Z,13.70
2023-03-02T20:24:03.633Z,16.57
2023-03-02T20:26:36.157Z,13.97
2023-03-02T20:29:07.038Z,17.63
2023-03-02T20:31:37.367Z,15.30
2023-03-02T20:34:11.076Z,21.30
2023-03-02T20:36:43.090Z,15.43
2023-03-02T20:39:15.269Z,19.13
2023-03-02T20:41:51.321Z,13.23
2023-03-02T20:44:32.078Z,12.83
2023-03-02T20:47:13.325Z,15.43
2023-03-02T20:49:44.167Z,12.83
2023-03-02T20:55:02.074Z,16.90
2023-03-02T20:57:31.260Z,22.17
2023-03-02T21:00:05.473Z,16.07
2023-03-02T21:02:43.420Z,14.60
2023-03-02T21:05:23.467Z,14.23
2023-03-02T21:07:56.016Z,15.27
2023-03-02T21:10:28.652Z,12.70
2023-03-02T21:13:02.807Z,17.37
2023-03-02T21:15:40.794Z,14.60
2023-03-02T21:18:14.934Z,13.87
2023-03-02T21:20:55.861Z,13.87
2023-03-02T21:23:32.190Z,14.33
2023-03-02T21:26:01.698Z,16.20
2023-03-02T21:28:34.273Z,16.30
2023-03-02T21:31:03.635Z,17.47
2023-03-02T21:33:32.927Z,15.67
2023-03-02T21:36:05.173Z,16.93
2023-03-02T21:38:46.585Z,13.97
2023-03-02T21:41:30.334Z,12.57
2023-03-02T21:43:59.695Z,15.07
2023-03-02T21:46:29.135Z,14.90
2023-03-02T21:48:58.402Z,15.93
2023-03-02T21:51:35.712Z,11.77
2023-03-02T21:54:18.272Z,16.37
2023-03-02T21:56:47.410Z,13.90
2023-03-02T21:59:20.667Z,13.80
2023-03-02T22:01:53.559Z,16.23
2023-03-02T22:04:22.903Z,16.57
2023-03-02T22:07:00.500Z,14.77
2023-03-02T22:09:32.008Z,16.30
2023-03-02T22:12:01.222Z,16.80
2023-03-02T22:14:36.880Z,16.17
2023-03-02T22:17:17.805Z,18.13
2023-03-02T22:19:51.246Z,15.73
2023-03-02T22:22:34.076Z,16.67
2023-03-02T22:25:04.594Z,18.63
2023-03-02T22:27:34.884Z,17.00
2023-03-02T22:30:16.902Z,17.17
2023-03-02T22:32:55.207Z,14.60
2023-03-02T22:35:27.799Z,17.27
2023-03-02T22:38:03.474Z,15.17
2023-03-02T22:40:34.857Z,16.30
2023-03-02T22:43:16.260Z,17.27
2023-03-02T22:45:51.646Z,16.27
2023-03-02T22:48:23.179Z,17.00
2023-03-02T22:50:58.301Z,17.27
2023-03-02T22:53:31.502Z,17.20
2023-03-02T22:56:02.322Z,18.90
2023-03-02T22:58:45.308Z,16.63
2023-03-02T23:01:25.836Z,18.03
2023-03-02T23:03:57.500Z,19.43
2023-03-02T23:06:31.531Z,16.17
2023-03-02T23:09:07.871Z,16.53
2023-03-02T23:11:41.714Z,15.63
2023-03-02T23:14:25.411Z,15.13
2023-03-02T23:17:06.056Z,14.80
2023-03-02T23:19:35.280Z,14.13
2023-03-02T23:22:06.087Z,15.83
2023-03-02T23:24:45.842Z,14.97
2023-03-02T23:27:33.022Z,14.50
2023-03-02T23:30:02.115Z,17.20
2023-03-02T23:32:30.784Z,15.43
2023-03-02T23:34:59.546Z,15.30
2023-03-02T23:37:28.420Z,15.47
2023-03-02T23:39:58.540Z,15.87
2023-03-02T23:42:32.220Z,14.80
2023-03-02T23:45:01.389Z,17.73
2023-03-02T23:47:32.172Z,16.70
2023-03-02T23:50:03.332Z,18.37
2023-03-02T23:52:33.343Z,18.27
2023-03-02T23:55:03.882Z,18.13
2023-03-02T23:57:35.089Z,18.40
